createdAt,value
2022-08-11T00:01:24.708Z,33.30
2022-08-11T00:04:15.389Z,33.40
2022-08-11T00:07:06.936Z,33.20
2022-08-11T00:09:55.966Z,33.20
2022-08-11T00:12:45.339Z,33.20
2022-08-11T00:15:43.572Z,33.20
2022-08-11T00:18:41.248Z,33.00
2022-08-11T00:22:03.192Z,32.90
2022-08-11T00:24:53.944Z,33.20
2022-08-11T00:27:47.056Z,33.20
2022-08-11T00:30:41.175Z,33.60
2022-08-11T00:33:45.425Z,33.50
2022-08-11T00:36:45.609Z,33.50
2022-08-11T00:39:37.949Z,33.50
2022-08-11T00:42:44.968Z,33.40
2022-08-11T00:45:41.252Z,33.40
2022-08-11T00:48:37.874Z,33.40
2022-08-11T00:51:57.665Z,33.50
2022-08-11T00:55:47.243Z,33.80
2022-08-11T00:59:35.113Z,33.50
2022-08-11T01:02:43.136Z,33.50
2022-08-11T01:05:58.063Z,33.20
2022-08-11T01:09:17.956Z,33.20
2022-08-11T01:12:42.155Z,33.40
2022-08-11T01:16:10.889Z,33.90
2022-08-11T01:20:47.970Z,33.80
2022-08-11T01:23:50.608Z,33.80
2022-08-11T01:27:19.412Z,33.60
2022-08-11T01:31:12.877Z,33.80
2022-08-11T01:35:02.863Z,33.50
2022-08-11T01:38:29.064Z,33.60
2022-08-11T01:41:48.339Z,33.70
2022-08-11T01:45:09.120Z,33.70
2022-08-11T01:48:08.339Z,33.70
2022-08-11T01:51:19.127Z,33.70
2022-08-11T01:54:19.201Z,33.90
2022-08-11T01:57:28.193Z,34.50
2022-08-11T02:00:20.548Z,34.40
2022-08-11T02:03:18.171Z,34.30
2022-08-11T02:06:39.009Z,34.20
2022-08-11T02:09:49.907Z,34.40
2022-08-11T02:12:52.768Z,34.20
2022-08-11T02:15:44.982Z,34.10
2022-08-11T02:18:52.658Z,34.10
2022-08-11T02:22:08.334Z,34.00
2022-08-11T02:25:08.197Z,34.00
2022-08-11T02:28:04.904Z,34.30
2022-08-11T02:32:14.699Z,34.40
2022-08-11T02:34:43.912Z,34.40
2022-08-11T02:38:07.145Z,34.50
2022-08-11T02:41:29.549Z,34.60
2022-08-11T02:44:32.648Z,34.40
2022-08-11T02:47:39.243Z,34.40
2022-08-11T02:50:29.399Z,34.50
2022-08-11T02:53:25.582Z,34.40
2022-08-11T02:56:25.576Z,34.50
2022-08-11T02:59:50.143Z,34.40
2022-08-11T03:03:01.021Z,34.60
2022-08-11T03:06:08.904Z,34.40
2022-08-11T03:09:06.115Z,34.30
2022-08-11T03:12:24.871Z,34.60
2022-08-11T03:15:36.508Z,34.40
2022-08-11T03:18:30.853Z,34.60
2022-08-11T03:22:03.269Z,34.70
2022-08-11T03:24:49.605Z,34.70
2022-08-11T03:27:52.323Z,34.70
2022-08-11T03:30:49.980Z,34.90
2022-08-11T03:34:04.136Z,34.70
2022-08-11T03:37:45.472Z,35.00
2022-08-11T03:41:54.725Z,34.80
2022-08-11T03:44:49.499Z,35.00
2022-08-11T03:47:55.636Z,34.80
2022-08-11T03:51:03.920Z,34.80
2022-08-11T03:54:11.578Z,34.80
2022-08-11T03:57:53.793Z,34.80
2022-08-11T04:01:34.942Z,34.60
2022-08-11T04:05:24.789Z,34.90
2022-08-11T04:09:09.566Z,35.00
2022-08-11T04:12:42.062Z,35.20
2022-08-11T04:16:12.070Z,35.10
2022-08-11T04:19:47.213Z,34.90
2022-08-11T04:23:08.797Z,35.20
2022-08-11T04:26:38.383Z,35.30
2022-08-11T04:30:03.345Z,35.10
2022-08-11T04:33:36.773Z,35.40
2022-08-11T04:37:12.322Z,35.30
2022-08-11T04:40:38.897Z,35.20
2022-08-11T04:44:27.863Z,35.40
2022-08-11T04:48:20.233Z,35.50
2022-08-11T04:51:58.178Z,35.10
2022-08-11T04:55:26.681Z,35.40
2022-08-11T04:58:36.691Z,35.60
2022-08-11T05:01:42.562Z,35.50
2022-08-11T05:05:14.635Z,35.70
2022-08-11T05:09:03.987Z,35.80
2022-08-11T05:12:31.215Z,35.90
2022-08-11T05:15:58.082Z,36.30
2022-08-11T05:19:08.431Z,36.30
2022-08-11T05:22:16.429Z,36.10
2022-08-11T05:26:44.641Z,36.20
2022-08-11T05:29:19.575Z,36.70
2022-08-11T05:32:26.813Z,36.50
2022-08-11T05:35:59.839Z,36.60
2022-08-11T05:38:44.772Z,36.60
2022-08-11T05:41:51.273Z,36.70
2022-08-11T05:44:58.552Z,36.60
2022-08-11T05:48:08.689Z,36.80
2022-08-11T05:51:16.820Z,37.00
2022-08-11T05:54:28.748Z,36.80
2022-08-11T05:57:48.316Z,36.90
2022-08-11T06:00:42.838Z,36.80
2022-08-11T06:03:32.409Z,36.60
2022-08-11T06:06:19.597Z,36.70
2022-08-11T06:09:09.007Z,36.70
2022-08-11T06:12:01.413Z,36.60
2022-08-11T06:14:55.734Z,36.50
2022-08-11T06:17:47.871Z,36.60
2022-08-11T06:20:47.163Z,36.50
2022-08-11T06:23:36.277Z,36.50
2022-08-11T06:26:23.876Z,36.60
2022-08-11T06:29:12.625Z,36.60
2022-08-11T06:32:05.446Z,37.20
2022-08-11T06:35:06.317Z,36.70
2022-08-11T06:38:07.620Z,36.50
2022-08-11T06:41:16.186Z,36.50
2022-08-11T06:44:23.058Z,36.40
2022-08-11T06:47:14.627Z,36.50
2022-08-11T06:50:20.595Z,36.30
2022-08-11T06:53:10.691Z,36.40
2022-08-11T06:56:17.967Z,36.40
2022-08-11T06:59:23.166Z,36.60
2022-08-11T07:02:21.211Z,36.30
2022-08-11T07:05:14.159Z,36.30
2022-08-11T07:08:55.394Z,36.10
2022-08-11T07:12:21.554Z,36.00
2022-08-11T07:16:12.751Z,35.60
2022-08-11T07:18:58.015Z,35.90
2022-08-11T07:22:04.815Z,36.00
2022-08-11T07:25:20.436Z,35.80
2022-08-11T07:28:36.361Z,35.70
2022-08-11T07:31:31.900Z,35.70
2022-08-11T07:34:24.620Z,35.60
2022-08-11T07:37:20.580Z,35.50
2022-08-11T07:40:09.990Z,35.60
2022-08-11T07:42:58.657Z,35.70
2022-08-11T07:46:05.324Z,35.60
2022-08-11T07:49:11.793Z,35.90
2022-08-11T07:52:18.505Z,35.50
2022-08-11T07:55:10.319Z,35.50
2022-08-11T07:58:19.798Z,35.50
2022-08-11T08:01:25.628Z,35.50
2022-08-11T08:04:33.980Z,35.40
2022-08-11T08:07:43.382Z,35.30
2022-08-11T08:10:50.160Z,35.30
2022-08-11T08:13:59.318Z,35.30
2022-08-11T08:17:04.285Z,35.40
2022-08-11T08:19:51.664Z,35.60
2022-08-11T08:22:43.927Z,35.40
2022-08-11T08:25:37.076Z,35.40
2022-08-11T08:28:26.870Z,35.40
2022-08-11T08:31:16.252Z,35.40
2022-08-11T08:34:03.975Z,35.30
2022-08-11T08:36:53.086Z,35.20
2022-08-11T08:39:42.114Z,35.00
2022-08-11T08:42:32.565Z,35.00
2022-08-11T08:45:20.301Z,35.00
2022-08-11T08:48:13.410Z,34.90
2022-08-11T08:51:24.449Z,35.60
2022-08-11T08:54:18.263Z,34.60
2022-08-11T08:57:09.554Z,34.50
2022-08-11T08:59:58.201Z,34.70
2022-08-11T09:02:46.692Z,34.70
2022-08-11T09:05:34.295Z,34.60
2022-08-11T09:08:23.451Z,35.40
2022-08-11T09:11:30.072Z,34.50
2022-08-11T09:14:20.387Z,34.30
2022-08-11T09:17:07.585Z,34.10
2022-08-11T09:20:01.568Z,34.10
2022-08-11T09:26:34.503Z,33.60
2022-08-11T09:29:23.472Z,33.60
2022-08-11T09:32:10.808Z,33.40
2022-08-11T09:34:59.051Z,33.40
2022-08-11T09:38:04.100Z,33.40
2022-08-11T09:40:56.213Z,33.30
2022-08-11T09:44:05.010Z,33.30
2022-08-11T09:46:55.791Z,33.10
2022-08-11T09:49:46.281Z,33.10
2022-08-11T09:52:37.988Z,32.70
2022-08-11T09:55:26.453Z,32.60
2022-08-11T09:58:41.844Z,32.50
2022-08-11T10:01:30.135Z,32.70
2022-08-11T10:04:21.998Z,32.20
2022-08-11T10:07:10.877Z,32.00
2022-08-11T10:10:02.950Z,32.00
2022-08-11T10:12:56.094Z,31.80
2022-08-11T10:16:00.082Z,31.80
2022-08-11T10:18:53.732Z,31.90
2022-08-11T10:22:05.550Z,31.80
2022-08-11T10:25:11.719Z,31.70
2022-08-11T10:28:29.086Z,31.70
2022-08-11T10:31:24.972Z,32.10
2022-08-11T10:34:17.856Z,32.00
2022-08-11T10:37:15.016Z,31.70
2022-08-11T10:40:03.502Z,31.40
2022-08-11T10:43:07.147Z,31.50
2022-08-11T10:46:12.235Z,31.00
2022-08-11T10:49:00.364Z,30.90
2022-08-11T10:52:05.785Z,30.60
2022-08-11T10:55:12.559Z,30.40
2022-08-11T10:58:18.001Z,30.30
2022-08-11T11:01:06.137Z,30.20
2022-08-11T11:03:58.797Z,30.20
2022-08-11T11:06:53.913Z,29.80
2022-08-11T11:09:47.751Z,29.30
2022-08-11T11:12:58.883Z,29.50
2022-08-11T11:16:05.672Z,29.40
2022-08-11T11:19:00.680Z,29.30
2022-08-11T11:21:54.041Z,29.40
2022-08-11T11:24:54.357Z,29.50
2022-08-11T11:28:02.447Z,29.40
2022-08-11T11:31:07.421Z,29.50
2022-08-11T11:34:15.268Z,29.70
2022-08-11T11:37:03.388Z,29.60
2022-08-11T11:39:51.180Z,29.70
2022-08-11T11:42:39.529Z,29.60
2022-08-11T11:45:28.664Z,29.50
2022-08-11T11:48:16.398Z,29.60
2022-08-11T11:51:04.054Z,29.60
2022-08-11T11:53:52.884Z,29.70
2022-08-11T11:56:40.921Z,29.70
2022-08-11T11:59:47.279Z,29.70
2022-08-11T12:02:37.646Z,29.80
2022-08-11T12:05:25.574Z,29.70
2022-08-11T12:08:16.269Z,29.70
2022-08-11T12:11:23.271Z,29.40
2022-08-11T12:14:12.121Z,29.50
2022-08-11T12:17:00.372Z,29.60
2022-08-11T12:19:49.173Z,29.70
2022-08-11T12:22:54.925Z,29.90
2022-08-11T12:26:25.326Z,29.80
2022-08-11T12:29:12.617Z,29.20
2022-08-11T12:32:00.599Z,29.10
2022-08-11T12:34:50.173Z,29.10
2022-08-11T12:37:42.175Z,29.00
2022-08-11T12:41:16.345Z,29.10
2022-08-11T12:44:12.505Z,29.00
2022-08-11T12:47:03.114Z,29.00
2022-08-11T12:50:22.721Z,28.80
2022-08-11T12:53:13.233Z,28.60
2022-08-11T12:56:23.784Z,29.00
2022-08-11T12:59:29.172Z,28.90
2022-08-11T13:02:40.002Z,28.90
2022-08-11T13:05:33.135Z,28.80
2022-08-11T13:08:30.427Z,28.70
2022-08-11T13:11:56.041Z,28.60
2022-08-11T13:14:44.559Z,28.70
2022-08-11T13:17:44.165Z,28.80
2022-08-11T13:20:33.684Z,28.50
2022-08-11T13:23:21.488Z,28.50
2022-08-11T13:26:09.480Z,28.70
2022-08-11T13:28:56.883Z,28.70
2022-08-11T13:31:44.629Z,28.70
2022-08-11T13:34:32.439Z,28.60
2022-08-11T13:38:18.712Z,28.40
2022-08-11T13:40:45.733Z,28.10
2022-08-11T13:43:39.544Z,28.20
2022-08-11T13:46:29.052Z,28.50
2022-08-11T13:49:18.875Z,28.20
2022-08-11T13:52:08.603Z,28.10
2022-08-11T13:54:58.432Z,28.30
2022-08-11T13:58:08.234Z,28.30
2022-08-11T14:00:54.728Z,28.50
2022-08-11T14:04:29.815Z,28.60
2022-08-11T14:07:00.188Z,28.40
2022-08-11T14:09:55.483Z,28.10
2022-08-11T14:13:12.853Z,27.80
2022-08-11T14:16:07.297Z,27.70
2022-08-11T14:19:01.524Z,27.50
2022-08-11T14:22:08.858Z,27.60
2022-08-11T14:24:57.035Z,27.70
2022-08-11T14:28:31.985Z,27.80
2022-08-11T14:31:01.582Z,27.80
2022-08-11T14:34:00.236Z,28.00
2022-08-11T14:36:54.148Z,27.90
2022-08-11T14:39:46.420Z,28.00
2022-08-11T14:42:51.199Z,27.80
2022-08-11T14:45:59.120Z,28.00
2022-08-11T14:48:46.997Z,28.20
2022-08-11T14:51:35.847Z,28.00
2022-08-11T14:54:43.598Z,27.80
2022-08-11T14:57:55.123Z,27.70
2022-08-11T15:00:43.861Z,27.60
2022-08-11T15:03:33.798Z,27.60
2022-08-11T15:06:21.668Z,27.60
2022-08-11T15:09:09.532Z,27.40
2022-08-11T15:12:32.641Z,27.50
2022-08-11T15:15:39.545Z,27.60
2022-08-11T15:18:28.444Z,27.40
2022-08-11T15:21:33.183Z,27.50
2022-08-11T15:24:20.320Z,27.60
2022-08-11T15:27:31.725Z,27.50
2022-08-11T15:30:36.304Z,27.30
2022-08-11T15:33:45.406Z,27.30
2022-08-11T15:36:52.816Z,27.20
2022-08-11T15:40:02.729Z,27.30
2022-08-11T15:43:17.294Z,27.10
2022-08-11T15:46:11.217Z,26.90
2022-08-11T15:49:02.590Z,27.00
2022-08-11T15:51:58.428Z,26.90
2022-08-11T15:54:50.342Z,27.00
2022-08-11T15:57:56.657Z,26.90
2022-08-11T16:01:08.614Z,26.80
2022-08-11T16:04:14.096Z,27.00
2022-08-11T16:07:06.899Z,27.00
2022-08-11T16:10:01.398Z,26.70
2022-08-11T16:13:16.607Z,26.70
2022-08-11T16:16:15.331Z,26.60
2022-08-11T16:19:05.705Z,26.50
2022-08-11T16:21:54.588Z,26.50
2022-08-11T16:27:06.892Z,26.60
2022-08-11T16:27:58.901Z,26.50
2022-08-11T16:30:47.560Z,26.40
2022-08-11T16:33:50.102Z,26.60
2022-08-11T16:36:58.177Z,26.40
2022-08-11T16:39:48.362Z,26.30
2022-08-11T16:43:04.634Z,26.30
2022-08-11T16:46:17.240Z,26.30
2022-08-11T16:49:07.770Z,26.30
2022-08-11T16:51:56.462Z,26.20
2022-08-11T16:54:44.651Z,26.20
2022-08-11T16:57:51.913Z,26.20
2022-08-11T17:00:40.885Z,26.40
2022-08-11T17:03:45.664Z,26.50
2022-08-11T17:06:52.842Z,26.20
2022-08-11T17:09:58.852Z,26.30
2022-08-11T17:13:09.970Z,26.30
2022-08-11T17:16:09.520Z,26.20
2022-08-11T17:19:02.325Z,26.40
2022-08-11T17:22:09.711Z,26.50
2022-08-11T17:25:00.487Z,26.30
2022-08-11T17:27:50.006Z,26.30
2022-08-11T17:30:56.457Z,26.30
2022-08-11T17:34:00.726Z,26.80
2022-08-11T17:36:51.332Z,26.30
2022-08-11T17:39:39.686Z,26.20
2022-08-11T17:42:48.751Z,26.20
2022-08-11T17:45:53.744Z,26.10
2022-08-11T17:48:47.825Z,26.00
2022-08-11T17:51:54.187Z,25.90
2022-08-11T17:55:00.171Z,26.10
2022-08-11T17:58:08.363Z,26.00
2022-08-11T18:00:57.561Z,26.10
2022-08-11T18:03:57.587Z,26.20
2022-08-11T18:06:48.332Z,26.20
2022-08-11T18:09:53.426Z,26.20
2022-08-11T18:12:58.553Z,26.30
2022-08-11T18:16:05.150Z,26.30
2022-08-11T18:19:09.352Z,26.20
2022-08-11T18:22:19.987Z,26.20
2022-08-11T18:25:29.087Z,26.20
2022-08-11T18:28:43.037Z,26.20
2022-08-11T18:31:53.001Z,26.20
2022-08-11T18:35:01.142Z,26.40
2022-08-11T18:38:08.805Z,26.50
2022-08-11T18:41:14.759Z,26.40
2022-08-11T18:44:25.168Z,26.50
2022-08-11T18:47:34.029Z,26.50
2022-08-11T18:50:41.555Z,26.50
2022-08-11T18:53:56.075Z,26.40
2022-08-11T18:57:05.648Z,26.60
2022-08-11T19:00:12.268Z,26.60
2022-08-11T19:03:20.551Z,26.70
2022-08-11T19:06:38.345Z,26.90
2022-08-11T19:09:47.591Z,26.90
2022-08-11T19:12:58.095Z,27.00
2022-08-11T19:16:05.599Z,27.10
2022-08-11T19:19:13.637Z,27.00
2022-08-11T19:22:22.184Z,27.30
2022-08-11T19:25:30.275Z,27.50
2022-08-11T19:28:36.550Z,27.90
2022-08-11T19:31:45.000Z,27.90
2022-08-11T19:34:51.882Z,28.00
2022-08-11T19:37:58.466Z,28.20
2022-08-11T19:41:04.029Z,28.90
2022-08-11T19:44:13.514Z,28.50
2022-08-11T19:47:21.330Z,29.10
2022-08-11T19:50:27.969Z,28.50
2022-08-11T19:53:33.033Z,28.70
2022-08-11T19:56:37.972Z,28.70
2022-08-11T19:59:43.429Z,28.70
2022-08-11T20:02:48.459Z,28.80
2022-08-11T20:05:59.622Z,28.70
2022-08-11T20:09:08.090Z,29.00
2022-08-11T20:12:15.909Z,28.60
2022-08-11T20:15:24.698Z,28.80
2022-08-11T20:18:31.603Z,28.70
2022-08-11T20:21:37.562Z,28.80
2022-08-11T20:24:43.405Z,28.90
2022-08-11T20:27:51.288Z,29.30
2022-08-11T20:31:02.872Z,29.50
2022-08-11T20:34:08.040Z,29.40
2022-08-11T20:37:17.035Z,29.50
2022-08-11T20:40:23.990Z,29.50
2022-08-11T20:44:06.610Z,30.00
2022-08-11T20:46:57.421Z,29.90
2022-08-11T20:50:05.922Z,29.90
2022-08-11T20:53:12.903Z,29.90
2022-08-11T20:56:19.505Z,29.80
2022-08-11T20:59:26.178Z,30.00
2022-08-11T21:02:32.351Z,30.30
2022-08-11T21:09:03.733Z,30.20
2022-08-11T21:12:14.315Z,30.40
2022-08-11T21:15:47.492Z,30.60
2022-08-11T21:18:49.836Z,30.70
2022-08-11T21:21:57.594Z,30.70
2022-08-11T21:25:04.726Z,30.70
2022-08-11T21:28:10.908Z,31.20
2022-08-11T21:31:16.985Z,31.10
2022-08-11T21:34:23.110Z,31.30
2022-08-11T21:37:31.050Z,31.50
2022-08-11T21:40:39.095Z,31.30
2022-08-11T21:43:46.258Z,31.10
2022-08-11T21:46:51.783Z,30.90
2022-08-11T21:49:58.911Z,31.30
2022-08-11T21:53:03.949Z,31.20
2022-08-11T21:56:11.716Z,31.40
2022-08-11T21:59:17.449Z,31.80
2022-08-11T22:02:22.378Z,31.30
2022-08-11T22:05:28.386Z,31.30
2022-08-11T22:08:34.186Z,31.30
2022-08-11T22:11:40.680Z,31.40
2022-08-11T22:14:45.551Z,31.60
2022-08-11T22:17:51.146Z,31.70
2022-08-11T22:20:58.660Z,31.60
2022-08-11T22:24:07.859Z,31.70
2022-08-11T22:27:15.637Z,31.80
2022-08-11T22:30:20.121Z,31.90
2022-08-11T22:33:28.868Z,31.80
2022-08-11T22:36:34.087Z,32.00
2022-08-11T22:39:40.153Z,32.10
2022-08-11T22:42:46.716Z,32.00
2022-08-11T22:45:52.569Z,32.00
2022-08-11T22:48:58.123Z,31.80
2022-08-11T22:52:03.586Z,31.60
2022-08-11T22:55:10.334Z,31.80
2022-08-11T22:58:17.318Z,31.80
2022-08-11T23:01:21.848Z,31.50
2022-08-11T23:04:26.651Z,31.80
2022-08-11T23:07:50.978Z,31.90
2022-08-11T23:10:57.916Z,31.70
2022-08-11T23:14:04.512Z,31.60
2022-08-11T23:17:10.022Z,31.60
2022-08-11T23:20:32.237Z,31.50
2022-08-11T23:23:40.977Z,31.70
2022-08-11T23:26:48.540Z,31.50
2022-08-11T23:29:55.977Z,31.80
2022-08-11T23:33:04.374Z,32.00
2022-08-11T23:36:10.948Z,32.40
2022-08-11T23:39:36.196Z,32.10
2022-08-11T23:42:40.725Z,31.80
2022-08-11T23:45:47.462Z,32.20
2022-08-11T23:48:52.955Z,31.80
2022-08-11T23:51:58.903Z,32.10
2022-08-11T23:55:04.525Z,31.70
2022-08-11T23:58:10.103Z,32.20
